createdAt,value
2022-11-20T00:01:21.917Z,82.00
2022-11-20T00:03:48.996Z,81.55
2022-11-20T00:06:18.693Z,81.21
2022-11-20T00:08:46.664Z,81.25
2022-11-20T00:11:16.694Z,80.80
2022-11-20T00:13:45.126Z,80.71
2022-11-20T00:16:14.538Z,80.85
2022-11-20T00:18:43.099Z,80.38
2022-11-20T00:21:15.822Z,79.47
2022-11-20T00:23:43.318Z,79.34
2022-11-20T00:26:13.268Z,79.23
2022-11-20T00:28:40.443Z,79.58
2022-11-20T00:31:10.455Z,79.93
2022-11-20T00:33:37.584Z,79.49
2022-11-20T00:36:06.892Z,78.98
2022-11-20T00:38:34.096Z,79.04
2022-11-20T00:41:04.186Z,78.96
2022-11-20T00:43:31.274Z,79.50
2022-11-20T00:45:59.692Z,79.61
2022-11-20T00:48:27.135Z,79.39
2022-11-20T00:50:54.511Z,79.97
2022-11-20T00:53:22.023Z,79.47
2022-11-20T00:55:56.687Z,80.02
2022-11-20T00:58:25.107Z,80.61
2022-11-20T01:00:52.178Z,80.68
2022-11-20T01:03:24.023Z,81.08
2022-11-20T01:05:53.635Z,81.36
2022-11-20T01:08:20.303Z,81.76
2022-11-20T01:10:46.944Z,81.25
2022-11-20T01:13:32.371Z,82.12
2022-11-20T01:16:04.766Z,82.45
2022-11-20T01:18:31.637Z,83.16
2022-11-20T01:21:06.710Z,83.76
2022-11-20T01:23:36.352Z,83.65
2022-11-20T01:26:06.795Z,83.68
2022-11-20T01:28:34.277Z,83.77
2022-11-20T01:31:01.586Z,84.13
2022-11-20T01:33:28.980Z,83.85
2022-11-20T01:36:05.042Z,84.40
2022-11-20T01:38:32.001Z,83.91
2022-11-20T01:40:58.875Z,84.79
2022-11-20T01:43:26.541Z,84.41
2022-11-20T01:46:18.119Z,84.94
2022-11-20T01:49:15.962Z,84.72
2022-11-20T01:51:48.194Z,84.84
2022-11-20T01:54:28.780Z,85.06
2022-11-20T01:57:00.497Z,85.14
2022-11-20T01:59:30.379Z,85.36
2022-11-20T02:01:57.887Z,85.33
2022-11-20T02:04:26.470Z,85.35
2022-11-20T02:07:01.198Z,85.81
2022-11-20T02:09:29.138Z,85.77
2022-11-20T02:11:57.356Z,85.58
2022-11-20T02:14:25.495Z,85.77
2022-11-20T02:16:52.690Z,85.54
2022-11-20T02:19:27.705Z,85.70
2022-11-20T02:22:15.247Z,85.59
2022-11-20T02:24:46.889Z,85.62
2022-11-20T02:27:17.640Z,85.71
2022-11-20T02:29:51.773Z,86.06
2022-11-20T02:32:30.055Z,86.49
2022-11-20T02:34:57.614Z,86.57
2022-11-20T02:37:33.366Z,86.18
2022-11-20T02:40:00.356Z,86.54
2022-11-20T02:42:27.220Z,86.52
2022-11-20T02:44:53.891Z,86.60
2022-11-20T02:47:20.711Z,86.98
2022-11-20T02:49:47.388Z,87.09
2022-11-20T02:52:14.057Z,87.16
2022-11-20T02:54:40.769Z,87.04
2022-11-20T02:57:08.159Z,87.39
2022-11-20T02:59:35.008Z,87.73
2022-11-20T03:02:01.681Z,87.32
2022-11-20T03:04:28.535Z,87.74
2022-11-20T03:06:55.793Z,87.54
2022-11-20T03:09:23.033Z,87.58
2022-11-20T03:11:50.214Z,87.57
2022-11-20T03:14:17.080Z,87.54
2022-11-20T03:16:44.050Z,87.93
2022-11-20T03:19:12.452Z,87.49
2022-11-20T03:21:39.509Z,87.64
2022-11-20T03:24:06.920Z,87.47
2022-11-20T03:26:33.971Z,87.47
2022-11-20T03:29:03.772Z,87.45
2022-11-20T03:31:41.337Z,87.09
2022-11-20T03:34:09.707Z,87.41
2022-11-20T03:36:41.898Z,87.43
2022-11-20T03:39:09.494Z,87.49
2022-11-20T03:41:41.455Z,87.75
2022-11-20T03:44:11.511Z,87.74
2022-11-20T03:46:39.318Z,87.10
2022-11-20T03:49:06.555Z,86.88
2022-11-20T03:51:36.169Z,86.38
2022-11-20T03:54:08.826Z,86.15
2022-11-20T03:56:39.093Z,86.63
2022-11-20T03:59:06.426Z,86.64
2022-11-20T04:01:36.493Z,86.86
2022-11-20T04:04:04.298Z,86.46
2022-11-20T04:06:36.282Z,86.14
2022-11-20T04:09:03.666Z,84.96
2022-11-20T04:11:33.281Z,84.93
2022-11-20T04:14:03.111Z,84.58
2022-11-20T04:16:32.426Z,84.72
2022-11-20T04:19:01.992Z,85.17
2022-11-20T04:21:29.644Z,84.87
2022-11-20T04:23:56.843Z,85.03
2022-11-20T04:26:26.041Z,86.04
2022-11-20T04:28:53.970Z,86.45
2022-11-20T04:31:23.918Z,86.00
2022-11-20T04:33:51.097Z,86.17
2022-11-20T04:36:21.239Z,86.15
2022-11-20T04:38:56.497Z,85.78
2022-11-20T04:41:26.560Z,86.91
2022-11-20T04:44:00.059Z,86.68
2022-11-20T04:46:28.560Z,86.24
2022-11-20T04:48:55.471Z,86.36
2022-11-20T04:51:22.188Z,86.53
2022-11-20T04:53:49.167Z,86.76
2022-11-20T04:56:16.448Z,86.33
2022-11-20T04:58:44.150Z,86.03
2022-11-20T05:01:16.769Z,85.31
2022-11-20T05:03:45.027Z,86.12
2022-11-20T05:06:15.054Z,86.04
2022-11-20T05:08:42.582Z,86.03
2022-11-20T05:11:12.192Z,85.21
2022-11-20T05:13:40.209Z,85.56
2022-11-20T05:16:09.718Z,84.88
2022-11-20T05:18:37.792Z,84.62
2022-11-20T05:21:05.883Z,84.74
2022-11-20T05:23:33.775Z,84.78
2022-11-20T05:26:01.705Z,85.26
2022-11-20T05:28:30.098Z,85.05
2022-11-20T05:30:56.945Z,84.72
2022-11-20T05:33:23.944Z,85.19
2022-11-20T05:35:50.798Z,85.34
2022-11-20T05:38:17.467Z,85.33
2022-11-20T05:40:44.308Z,85.54
2022-11-20T05:43:11.004Z,85.45
2022-11-20T05:45:37.840Z,85.13
2022-11-20T05:48:04.839Z,85.15
2022-11-20T05:50:31.699Z,85.27
2022-11-20T05:53:01.707Z,85.88
2022-11-20T05:55:28.812Z,86.04
2022-11-20T05:57:56.155Z,86.42
2022-11-20T06:00:23.578Z,86.12
2022-11-20T06:02:50.628Z,86.35
2022-11-20T06:05:17.337Z,86.53
2022-11-20T06:07:44.012Z,86.65
2022-11-20T06:10:11.094Z,87.24
2022-11-20T06:12:37.797Z,87.74
2022-11-20T06:15:06.050Z,88.12
2022-11-20T06:17:32.926Z,87.37
2022-11-20T06:19:59.602Z,87.54
2022-11-20T06:22:26.545Z,87.19
2022-11-20T06:24:53.220Z,87.27
2022-11-20T06:27:19.901Z,87.39
2022-11-20T06:29:46.565Z,87.80
2022-11-20T06:32:13.399Z,87.86
2022-11-20T06:34:40.036Z,87.64
2022-11-20T06:37:06.874Z,87.86
2022-11-20T06:39:33.510Z,88.10
2022-11-20T06:42:00.184Z,88.05
2022-11-20T06:44:27.095Z,88.60
2022-11-20T06:46:53.779Z,89.21
2022-11-20T06:49:20.909Z,89.42
2022-11-20T06:51:47.863Z,89.52
2022-11-20T06:54:14.544Z,89.71
2022-11-20T06:56:41.417Z,89.92
2022-11-20T06:59:08.463Z,90.18
2022-11-20T07:01:35.899Z,90.08
2022-11-20T07:04:04.031Z,89.73
2022-11-20T07:06:31.246Z,90.11
2022-11-20T07:08:58.418Z,90.21
2022-11-20T07:11:25.490Z,90.35
2022-11-20T07:13:52.213Z,90.06
2022-11-20T07:16:18.910Z,89.96
2022-11-20T07:18:50.252Z,89.68
2022-11-20T07:21:18.044Z,90.02
2022-11-20T07:23:44.748Z,90.23
2022-11-20T07:26:11.827Z,89.95
2022-11-20T07:28:39.139Z,89.83
2022-11-20T07:31:07.537Z,89.91
2022-11-20T07:33:35.105Z,90.38
2022-11-20T07:36:02.480Z,89.92
2022-11-20T07:38:29.953Z,89.79
2022-11-20T07:41:02.320Z,89.35
2022-11-20T07:43:28.984Z,89.38
2022-11-20T07:45:59.598Z,89.26
2022-11-20T07:48:26.834Z,89.40
2022-11-20T07:50:57.690Z,89.20
2022-11-20T07:53:25.400Z,89.01
2022-11-20T07:55:54.900Z,88.97
2022-11-20T07:58:22.382Z,88.47
2022-11-20T08:00:49.335Z,88.56
2022-11-20T08:03:20.296Z,88.71
2022-11-20T08:05:51.127Z,88.58
2022-11-20T08:08:17.986Z,87.60
2022-11-20T08:10:44.633Z,87.37
2022-11-20T08:13:29.843Z,86.81
2022-11-20T08:15:56.500Z,86.48
2022-11-20T08:18:31.150Z,87.03
2022-11-20T08:20:59.123Z,86.39
2022-11-20T08:23:25.884Z,86.34
2022-11-20T08:25:52.853Z,86.30
2022-11-20T08:28:22.293Z,86.58
2022-11-20T08:30:50.998Z,85.53
2022-11-20T08:33:19.162Z,85.55
2022-11-20T08:35:46.176Z,84.50
2022-11-20T08:38:13.030Z,84.60
2022-11-20T08:40:39.884Z,84.41
2022-11-20T08:43:06.518Z,83.87
2022-11-20T08:45:34.998Z,84.42
2022-11-20T08:48:03.670Z,83.07
2022-11-20T08:50:32.999Z,84.38
2022-11-20T08:53:06.495Z,84.08
2022-11-20T08:55:36.280Z,83.85
2022-11-20T08:58:06.934Z,83.98
2022-11-20T09:00:35.018Z,84.16
2022-11-20T09:03:02.464Z,84.36
2022-11-20T09:05:29.544Z,84.74
2022-11-20T09:08:00.697Z,86.97
2022-11-20T09:10:28.611Z,84.34
2022-11-20T09:12:56.596Z,84.85
2022-11-20T09:15:24.419Z,84.05
2022-11-20T09:17:56.125Z,82.79
2022-11-20T09:20:23.467Z,82.43
2022-11-20T09:22:50.248Z,81.88
2022-11-20T09:25:17.439Z,82.16
2022-11-20T09:27:47.121Z,81.77
2022-11-20T09:30:15.903Z,81.14
2022-11-20T09:32:43.715Z,80.84
2022-11-20T09:35:11.425Z,81.46
2022-11-20T09:37:38.512Z,81.50
2022-11-20T09:40:05.860Z,81.64
2022-11-20T09:43:10.186Z,81.51
2022-11-20T09:45:55.234Z,82.94
2022-11-20T09:48:44.179Z,82.15
2022-11-20T09:51:29.351Z,82.06
2022-11-20T09:54:02.699Z,82.39
2022-11-20T09:56:30.587Z,82.31
2022-11-20T09:59:05.212Z,81.13
2022-11-20T10:01:36.767Z,81.26
2022-11-20T10:04:19.030Z,80.73
2022-11-20T10:09:57.671Z,81.10
2022-11-20T10:13:02.798Z,81.39
2022-11-20T10:16:04.369Z,80.59
2022-11-20T10:18:36.837Z,80.88
2022-11-20T10:21:12.511Z,80.88
2022-11-20T10:24:16.827Z,80.83
2022-11-20T10:27:05.577Z,81.65
2022-11-20T10:29:39.141Z,80.66
2022-11-20T10:32:17.315Z,80.70
2022-11-20T10:34:58.918Z,81.52
2022-11-20T10:37:27.979Z,80.96
2022-11-20T10:40:10.855Z,80.81
2022-11-20T10:43:13.251Z,81.09
2022-11-20T10:46:01.495Z,81.90
2022-11-20T10:48:29.621Z,81.08
2022-11-20T10:51:24.511Z,81.06
2022-11-20T10:54:29.213Z,81.04
2022-11-20T10:57:09.541Z,81.17
2022-11-20T10:59:51.555Z,82.24
2022-11-20T11:02:32.023Z,82.69
2022-11-20T11:05:14.279Z,81.87
2022-11-20T11:07:42.910Z,82.12
2022-11-20T11:10:19.668Z,81.09
2022-11-20T11:12:51.254Z,81.23
2022-11-20T11:15:31.379Z,81.41
2022-11-20T11:17:58.324Z,81.45
2022-11-20T11:20:27.106Z,81.68
2022-11-20T11:22:57.220Z,83.00
2022-11-20T11:25:34.635Z,83.19
2022-11-20T11:28:22.699Z,83.53
2022-11-20T11:30:50.225Z,83.10
2022-11-20T11:33:25.209Z,83.63
2022-11-20T11:35:58.250Z,83.30
2022-11-20T11:38:38.793Z,84.18
2022-11-20T11:41:10.316Z,83.10
2022-11-20T11:43:57.105Z,83.10
2022-11-20T11:46:36.549Z,82.62
2022-11-20T11:49:18.493Z,82.69
2022-11-20T11:52:08.606Z,83.07
2022-11-20T11:54:52.462Z,84.04
2022-11-20T11:57:49.384Z,83.77
2022-11-20T12:00:20.932Z,84.12
2022-11-20T12:02:49.256Z,83.95
2022-11-20T12:05:19.056Z,83.77
2022-11-20T12:07:57.597Z,83.13
2022-11-20T12:10:30.161Z,83.00
2022-11-20T12:13:05.176Z,82.18
2022-11-20T12:15:35.096Z,82.49
2022-11-20T12:18:02.699Z,82.45
2022-11-20T12:20:42.678Z,82.71
2022-11-20T12:23:29.604Z,83.27
2022-11-20T12:26:06.532Z,83.42
2022-11-20T12:28:53.611Z,84.08
2022-11-20T12:32:04.287Z,84.53
2022-11-20T12:34:53.910Z,84.39
2022-11-20T12:37:51.255Z,84.20
2022-11-20T12:40:44.157Z,85.06
2022-11-20T12:43:49.506Z,85.48
2022-11-20T12:46:25.399Z,86.14
2022-11-20T12:49:06.651Z,86.33
2022-11-20T12:51:39.281Z,86.67
2022-11-20T12:54:31.863Z,85.82
2022-11-20T12:57:28.560Z,86.91
2022-11-20T13:00:01.994Z,86.67
2022-11-20T13:02:46.974Z,86.53
2022-11-20T13:05:35.507Z,87.56
2022-11-20T13:08:03.307Z,87.36
2022-11-20T13:10:38.988Z,87.09
2022-11-20T13:13:34.472Z,87.54
2022-11-20T13:16:27.539Z,87.43
2022-11-20T13:18:54.676Z,88.33
2022-11-20T13:21:23.481Z,87.66
2022-11-20T13:23:50.180Z,87.78
2022-11-20T13:26:21.368Z,87.78
2022-11-20T13:29:00.576Z,88.05
2022-11-20T13:31:36.484Z,87.64
2022-11-20T13:34:06.981Z,87.99
2022-11-20T13:36:35.904Z,87.70
2022-11-20T13:39:04.019Z,88.11
2022-11-20T13:41:36.109Z,88.29
2022-11-20T13:44:12.201Z,88.56
2022-11-20T13:46:46.551Z,88.10
2022-11-20T13:49:27.997Z,88.42
2022-11-20T13:52:15.560Z,88.37
2022-11-20T13:54:57.375Z,87.79
2022-11-20T13:57:42.729Z,88.84
2022-11-20T14:00:24.522Z,88.82
2022-11-20T14:03:13.199Z,88.26
2022-11-20T14:05:50.908Z,89.00
2022-11-20T14:08:46.315Z,88.62
2022-11-20T14:11:22.224Z,88.39
2022-11-20T14:14:00.833Z,88.50
2022-11-20T14:16:30.751Z,89.04
2022-11-20T14:19:18.945Z,89.32
2022-11-20T14:21:49.266Z,89.38
2022-11-20T14:24:22.118Z,88.72
2022-11-20T14:26:50.550Z,88.88
2022-11-20T14:29:21.704Z,89.27
2022-11-20T14:31:54.380Z,89.63
2022-11-20T14:34:25.936Z,89.50
2022-11-20T14:36:58.977Z,89.28
2022-11-20T14:39:36.066Z,89.80
2022-11-20T14:42:15.412Z,89.01
2022-11-20T14:44:43.795Z,88.88
2022-11-20T14:47:16.235Z,89.38
2022-11-20T14:49:44.341Z,89.14
2022-11-20T14:52:17.582Z,89.66
2022-11-20T14:54:49.615Z,89.14
2022-11-20T14:57:34.254Z,89.77
2022-11-20T15:00:22.769Z,90.17
2022-11-20T15:02:51.678Z,90.46
2022-11-20T15:05:22.106Z,90.00
2022-11-20T15:08:05.934Z,90.67
2022-11-20T15:10:33.083Z,89.98
2022-11-20T15:13:14.262Z,89.60
2022-11-20T15:15:52.408Z,90.27
2022-11-20T15:18:38.588Z,90.86
2022-11-20T15:21:12.615Z,89.74
2022-11-20T15:23:39.632Z,90.11
2022-11-20T15:26:08.356Z,90.11
2022-11-20T15:28:38.251Z,90.13
2022-11-20T15:31:05.190Z,90.41
2022-11-20T15:33:33.508Z,90.92
2022-11-20T15:36:00.544Z,90.98
2022-11-20T15:38:27.223Z,90.47
2022-11-20T15:40:54.032Z,90.54
2022-11-20T15:43:20.869Z,90.61
2022-11-20T15:45:51.778Z,91.25
2022-11-20T15:48:27.787Z,90.59
2022-11-20T15:51:29.788Z,91.11
2022-11-20T15:53:58.255Z,91.33
2022-11-20T15:56:26.045Z,91.03
2022-11-20T15:58:53.144Z,91.68
2022-11-20T16:01:23.120Z,91.41
2022-11-20T16:03:50.416Z,90.86
2022-11-20T16:06:17.216Z,91.49
2022-11-20T16:08:44.055Z,91.84
2022-11-20T16:11:16.696Z,91.38
2022-11-20T16:14:02.403Z,91.61
2022-11-20T16:16:35.592Z,91.71
2022-11-20T16:19:02.296Z,91.47
2022-11-20T16:21:32.024Z,91.83
2022-11-20T16:24:05.002Z,91.91
2022-11-20T16:26:32.645Z,91.92
2022-11-20T16:29:01.565Z,92.11
2022-11-20T16:31:28.474Z,92.36
2022-11-20T16:33:57.493Z,92.29
2022-11-20T16:36:26.815Z,92.32
2022-11-20T16:38:56.219Z,92.39
2022-11-20T16:41:26.470Z,92.58
2022-11-20T16:43:58.007Z,91.95
2022-11-20T16:46:27.097Z,91.84
2022-11-20T16:48:55.954Z,92.52
2022-11-20T16:51:24.234Z,92.42
2022-11-20T16:53:51.659Z,92.36
2022-11-20T16:56:20.568Z,92.47
2022-11-20T16:58:49.738Z,92.69
2022-11-20T17:01:21.487Z,91.94
2022-11-20T17:03:59.197Z,92.78
2022-11-20T17:06:29.208Z,91.92
2022-11-20T17:08:58.101Z,92.55
2022-11-20T17:11:25.636Z,92.30
2022-11-20T17:13:52.446Z,91.96
2022-11-20T17:16:21.823Z,92.14
2022-11-20T17:18:51.351Z,92.39
2022-11-20T17:21:19.305Z,92.80
2022-11-20T17:23:47.506Z,92.46
2022-11-20T17:26:19.828Z,92.49
2022-11-20T17:28:54.737Z,92.77
2022-11-20T17:31:21.705Z,92.80
2022-11-20T17:33:48.409Z,92.79
2022-11-20T17:36:17.947Z,93.04
2022-11-20T17:38:45.632Z,92.16
2022-11-20T17:41:15.135Z,92.86
2022-11-20T17:43:42.802Z,92.55
2022-11-20T17:46:13.651Z,92.45
2022-11-20T17:48:45.396Z,92.65
2022-11-20T17:51:15.931Z,93.08
2022-11-20T17:53:45.584Z,92.28
2022-11-20T17:56:30.580Z,93.07
2022-11-20T17:58:57.687Z,92.50
2022-11-20T18:01:25.070Z,92.93
2022-11-20T18:03:51.884Z,92.96
2022-11-20T18:06:21.496Z,92.49
2022-11-20T18:08:49.860Z,92.37
2022-11-20T18:11:25.052Z,92.58
2022-11-20T18:14:13.156Z,92.63
2022-11-20T18:16:43.894Z,92.60
2022-11-20T18:19:13.762Z,92.82
2022-11-20T18:21:41.805Z,92.85
2022-11-20T18:24:09.880Z,92.85
2022-11-20T18:26:42.809Z,92.39
2022-11-20T18:29:12.374Z,93.00
2022-11-20T18:31:39.894Z,92.74
2022-11-20T18:34:11.380Z,92.46
2022-11-20T18:36:39.321Z,92.64
2022-11-20T18:39:06.245Z,92.68
2022-11-20T18:41:51.903Z,92.50
2022-11-20T18:44:59.211Z,92.72
2022-11-20T18:47:31.960Z,92.50
2022-11-20T18:50:01.232Z,92.85
2022-11-20T18:52:37.643Z,92.87
2022-11-20T18:55:05.971Z,92.57
2022-11-20T18:57:32.833Z,92.79
2022-11-20T19:00:04.829Z,92.23
2022-11-20T19:02:40.912Z,92.49
2022-11-20T19:05:13.796Z,92.37
2022-11-20T19:07:41.746Z,92.40
2022-11-20T19:10:09.527Z,92.26
2022-11-20T19:12:36.270Z,91.78
2022-11-20T19:15:03.293Z,91.87
2022-11-20T19:17:30.198Z,91.22
2022-11-20T19:19:57.136Z,91.79
2022-11-20T19:22:24.013Z,91.82
2022-11-20T19:24:50.859Z,91.76
2022-11-20T19:27:17.595Z,91.37
2022-11-20T19:29:44.502Z,90.95
2022-11-20T19:32:11.300Z,91.04
2022-11-20T19:34:37.996Z,91.78
2022-11-20T19:37:05.074Z,91.30
2022-11-20T19:39:32.012Z,91.03
2022-11-20T19:41:58.895Z,91.20
2022-11-20T19:44:25.562Z,91.49
2022-11-20T19:46:52.358Z,91.17
2022-11-20T19:49:19.555Z,91.45
2022-11-20T19:51:48.953Z,91.20
2022-11-20T19:54:16.635Z,91.10
2022-11-20T19:56:45.105Z,91.09
2022-11-20T19:59:13.550Z,91.50
2022-11-20T20:01:40.397Z,91.12
2022-11-20T20:04:07.258Z,91.38
2022-11-20T20:06:38.125Z,91.85
2022-11-20T20:09:10.566Z,91.89
2022-11-20T20:11:37.792Z,92.21
2022-11-20T20:14:08.493Z,92.09
2022-11-20T20:16:35.606Z,92.25
2022-11-20T20:19:05.018Z,92.44
2022-11-20T20:21:34.884Z,92.87
2022-11-20T20:24:02.261Z,92.99
2022-11-20T20:26:31.280Z,93.25
2022-11-20T20:28:59.330Z,93.44
2022-11-20T20:31:29.222Z,93.61
2022-11-20T20:33:57.010Z,93.25
2022-11-20T20:36:24.998Z,93.48
2022-11-20T20:38:54.141Z,93.11
2022-11-20T20:41:22.965Z,93.05
2022-11-20T20:44:08.100Z,93.50
2022-11-20T20:46:35.024Z,93.44
2022-11-20T20:49:01.705Z,93.21
2022-11-20T20:51:28.461Z,93.09
2022-11-20T20:53:55.353Z,93.14
2022-11-20T20:56:22.217Z,93.30
2022-11-20T20:58:49.056Z,93.12
2022-11-20T21:01:17.917Z,93.01
2022-11-20T21:03:44.951Z,93.32
2022-11-20T21:06:12.040Z,93.11
2022-11-20T21:08:41.126Z,92.93
2022-11-20T21:11:11.485Z,93.24
2022-11-20T21:13:39.738Z,92.82
2022-11-20T21:16:07.281Z,92.92
2022-11-20T21:18:34.835Z,92.57
2022-11-20T21:21:24.160Z,92.41
2022-11-20T21:23:51.969Z,93.41
2022-11-20T21:26:20.426Z,92.66
2022-11-20T21:28:47.243Z,93.13
2022-11-20T21:31:16.700Z,92.87
2022-11-20T21:33:45.802Z,93.38
2022-11-20T21:36:18.851Z,92.97
2022-11-20T21:38:46.658Z,92.95
2022-11-20T21:41:14.681Z,92.65
2022-11-20T21:43:42.749Z,92.68
2022-11-20T21:46:12.052Z,93.59
2022-11-20T21:48:40.678Z,93.34
2022-11-20T21:51:13.014Z,92.91
2022-11-20T21:53:40.484Z,93.44
2022-11-20T21:56:09.372Z,92.58
2022-11-20T21:58:37.508Z,92.68
2022-11-20T22:01:08.825Z,92.65
2022-11-20T22:03:37.080Z,92.62
2022-11-20T22:06:05.197Z,92.73
2022-11-20T22:08:33.506Z,92.64
2022-11-20T22:11:03.556Z,92.58
2022-11-20T22:13:49.144Z,93.23
2022-11-20T22:16:16.252Z,93.14
2022-11-20T22:18:49.563Z,93.14
2022-11-20T22:21:18.644Z,91.93
2022-11-20T22:23:45.638Z,93.09
2022-11-20T22:26:15.208Z,92.82
2022-11-20T22:28:43.167Z,92.29
2022-11-20T22:31:11.226Z,92.51
2022-11-20T22:33:39.081Z,92.13
2022-11-20T22:36:14.264Z,92.39
2022-11-20T22:38:41.248Z,93.27
2022-11-20T22:41:11.114Z,93.06
2022-11-20T22:43:38.671Z,93.02
2022-11-20T22:46:17.192Z,92.68
2022-11-20T22:48:49.207Z,93.18
2022-11-20T22:51:18.119Z,93.90
2022-11-20T22:53:44.831Z,93.90
2022-11-20T22:56:13.081Z,92.90
2022-11-20T22:58:41.849Z,93.46
2022-11-20T23:01:09.822Z,93.13
2022-11-20T23:03:38.682Z,93.38
2022-11-20T23:06:06.011Z,93.85
2022-11-20T23:08:33.764Z,93.67
2022-11-20T23:11:02.174Z,93.27
2022-11-20T23:13:30.022Z,93.47
2022-11-20T23:16:03.529Z,93.45
2022-11-20T23:18:30.900Z,93.99
2022-11-20T23:21:03.613Z,93.13
2022-11-20T23:23:30.317Z,92.56
2022-11-20T23:26:02.259Z,92.17
2022-11-20T23:28:29.309Z,93.08
2022-11-20T23:30:56.636Z,93.21
2022-11-20T23:33:23.400Z,92.43
2022-11-20T23:35:51.289Z,93.25
2022-11-20T23:38:18.113Z,92.99
2022-11-20T23:40:49.068Z,93.35
2022-11-20T23:43:17.375Z,93.12
2022-11-20T23:45:52.732Z,92.83
2022-11-20T23:48:22.241Z,93.12
2022-11-20T23:50:49.763Z,92.28
2022-11-20T23:53:18.731Z,92.03
2022-11-20T23:55:51.314Z,92.29
2022-11-20T23:58:19.316Z,92.60
